logo
Search for airport 
image banner adimage banner adimage banner ad
image banner ad

OPREK - Rekodiq

Located in Humai, Pakistan

ICAO - , IATA -

Data provided by Airmate  

General information

Coordinates: N29°2'49" E62°11'44"
Elevation is 2783 feet MSL.
Magnetic variation is 2° East
View others Airports in Balochistan

Operational data

Special qualification required
Current time UTC:
Current local time:
Weather at : - ( 0 km )
METAR: LWSK 130620Z VRB02KT CAVOK 17/13 Q1027 NOSIG
View NOTAMs / SUP AIP / TFR affecting this airport [VIEW]
Communications frequencies: [VIEW]

Runways:

RWY identifierQFULength (ft)Width (ft)SurfaceLDA (ft)
36355°555397ASPH
18175°555397ASPH

Airport contact information

Address: Humai Pakistan

Satellite view of OPREK